Buena Vista, Colorado
Current Conditions -  °F | °C
As of 6:55 PM on Monday 24 Nov 2014 (Local Time) from KAEJ Reporting Station
Scattered Clouds Scattered Clouds  
Wind Chill:   Ceiling: Unl
Heat Index: 19°   Visibility: 10mi
Dew Point:   Wind: 10mph
Humidity: 65%   Direction: 290°WNW
Pressure: 30.21"   Gusts: NA
Location:  38.84°N, 106.13°W
Report Text: KAEJ 250155Z AUTO 29009KT 10SM SCT080 M07/M13 A3021 RMK AO2 T10751130
Loading
Personal Weather Stations






























Interactive Weather Map New forecast layout! Learn more

10-Day Weather Forecast

Advertisements
Track Severe Weather on mobile